createdAt,value
2017-07-11T00:00:29.064Z,77.48
2017-07-11T00:02:57.418Z,76.91
2017-07-11T00:05:26.266Z,77.21
2017-07-11T00:07:54.617Z,76.89
2017-07-11T00:10:22.981Z,77.02
2017-07-11T00:12:51.787Z,76.78
2017-07-11T00:15:20.139Z,77.25
2017-07-11T00:17:48.490Z,77.00
2017-07-11T00:20:17.171Z,76.98
2017-07-11T00:22:45.509Z,77.10
2017-07-11T00:25:13.854Z,76.91
2017-07-11T00:27:42.518Z,77.09
2017-07-11T00:30:10.881Z,76.73
2017-07-11T00:32:39.238Z,77.77
2017-07-11T00:35:08.098Z,78.43
2017-07-11T00:37:36.432Z,78.38
2017-07-11T00:40:04.780Z,78.23
2017-07-11T00:42:33.486Z,78.31
2017-07-11T00:45:01.836Z,78.23
2017-07-11T00:47:30.193Z,77.82
2017-07-11T00:49:59.149Z,77.58
2017-07-11T00:52:27.528Z,77.54
2017-07-11T00:54:55.881Z,77.75
2017-07-11T00:57:25.008Z,77.35
2017-07-11T00:59:53.348Z,77.77
2017-07-11T01:02:21.709Z,79.74
2017-07-11T01:04:50.589Z,79.60
2017-07-11T01:07:18.952Z,80.02
2017-07-11T01:09:47.306Z,78.78
2017-07-11T01:12:16.091Z,79.11
2017-07-11T01:14:44.483Z,78.31
2017-07-11T01:17:12.837Z,77.63
2017-07-11T01:19:41.629Z,78.69
2017-07-11T01:22:10.757Z,79.23
2017-07-11T01:24:39.109Z,79.44
2017-07-11T01:27:07.796Z,79.27
2017-07-11T01:29:36.181Z,78.73
2017-07-11T01:32:05.315Z,80.52
2017-07-11T01:34:34.308Z,81.36
2017-07-11T01:37:02.652Z,81.55
2017-07-11T01:39:31.009Z,81.68
2017-07-11T01:41:59.694Z,82.00
2017-07-11T01:44:28.093Z,81.97
2017-07-11T01:46:56.454Z,81.65
2017-07-11T01:49:25.065Z,80.81
2017-07-11T01:51:53.516Z,80.23
2017-07-11T01:54:21.895Z,80.24
2017-07-11T01:56:50.846Z,81.27
2017-07-11T01:59:19.204Z,81.09
2017-07-11T02:01:47.557Z,80.80
2017-07-11T02:04:16.470Z,80.49
2017-07-11T02:06:44.810Z,82.33
2017-07-11T02:09:13.170Z,82.96
2017-07-11T02:11:41.773Z,83.82
2017-07-11T02:14:10.153Z,83.89
2017-07-11T02:16:38.497Z,83.11
2017-07-11T02:19:07.195Z,82.32
2017-07-11T02:21:35.546Z,81.12
2017-07-11T02:24:03.885Z,80.62
2017-07-11T02:26:33.129Z,80.50
2017-07-11T02:29:01.486Z,81.39
2017-07-11T02:31:29.848Z,80.68
2017-07-11T02:33:59.469Z,79.87
2017-07-11T02:36:27.833Z,80.25
2017-07-11T02:38:56.964Z,80.48
2017-07-11T02:41:25.840Z,80.46
2017-07-11T02:43:54.975Z,80.14
2017-07-11T02:46:23.339Z,80.39
2017-07-11T02:48:52.217Z,80.82
2017-07-11T02:51:20.566Z,80.24
2017-07-11T02:53:48.915Z,80.26
2017-07-11T02:56:17.595Z,81.19
2017-07-11T02:58:45.934Z,80.42
2017-07-11T03:01:14.301Z,80.00
2017-07-11T03:03:43.704Z,79.99
2017-07-11T03:06:12.052Z,80.85
2017-07-11T03:08:40.373Z,79.56
2017-07-11T03:11:09.226Z,79.69
2017-07-11T03:13:37.573Z,81.79
2017-07-11T03:16:05.957Z,81.79
2017-07-11T03:18:34.813Z,81.26
2017-07-11T03:21:03.179Z,80.72
2017-07-11T03:23:32.301Z,80.62
2017-07-11T03:26:00.939Z,81.72
2017-07-11T03:28:29.322Z,80.93
2017-07-11T03:30:57.668Z,80.64
2017-07-11T03:33:26.692Z,80.46
2017-07-11T03:35:55.045Z,80.70
2017-07-11T03:38:23.394Z,80.79
2017-07-11T03:40:52.169Z,80.35
2017-07-11T03:43:20.538Z,79.80
2017-07-11T03:45:49.652Z,79.34
2017-07-11T03:48:18.290Z,78.74
2017-07-11T03:50:46.630Z,79.22
2017-07-11T03:53:14.969Z,79.11
2017-07-11T03:55:43.848Z,78.98
2017-07-11T03:58:12.207Z,78.48
2017-07-11T04:00:40.546Z,78.04
2017-07-11T04:03:09.244Z,77.75
2017-07-11T04:05:37.585Z,78.19
2017-07-11T04:08:05.918Z,78.40
2017-07-11T04:10:34.600Z,78.68
2017-07-11T04:13:02.949Z,78.01
2017-07-11T04:15:31.306Z,77.69
2017-07-11T04:18:00.421Z,78.09
2017-07-11T04:20:28.753Z,78.40
2017-07-11T04:22:57.121Z,78.52
2017-07-11T04:25:25.871Z,78.25
2017-07-11T04:27:54.213Z,78.69
2017-07-11T04:30:22.572Z,79.18
2017-07-11T04:32:51.282Z,78.82
2017-07-11T04:35:19.636Z,78.08
2017-07-11T04:37:47.990Z,79.13
2017-07-11T04:40:16.967Z,78.88
2017-07-11T04:42:45.318Z,78.37
2017-07-11T04:45:13.687Z,78.67
2017-07-11T04:47:42.304Z,79.42
2017-07-11T04:50:10.675Z,78.73
2017-07-11T04:52:38.993Z,78.31
2017-07-11T04:55:07.653Z,78.94
2017-07-11T04:57:36.055Z,78.54
2017-07-11T05:00:04.416Z,78.21
2017-07-11T05:02:33.302Z,78.95
2017-07-11T05:05:01.633Z,79.18
2017-07-11T05:07:29.955Z,78.76
2017-07-11T05:09:58.624Z,77.98
2017-07-11T05:12:27.756Z,76.92
2017-07-11T05:14:56.155Z,76.27
2017-07-11T05:17:25.007Z,76.08
2017-07-11T05:19:53.361Z,75.77
2017-07-11T05:22:21.727Z,75.38
2017-07-11T05:24:50.860Z,74.94
2017-07-11T05:27:19.260Z,75.10
2017-07-11T05:29:47.613Z,75.58
2017-07-11T05:32:16.276Z,76.26
2017-07-11T05:34:44.604Z,77.14
2017-07-11T05:37:12.933Z,77.34
2017-07-11T05:39:41.565Z,77.25
2017-07-11T05:42:09.915Z,76.86
2017-07-11T05:44:38.264Z,78.16
2017-07-11T05:47:07.012Z,78.00
2017-07-11T05:49:35.385Z,77.10
2017-07-11T05:52:03.738Z,76.79
2017-07-11T05:54:32.382Z,77.54
2017-07-11T05:57:00.734Z,77.66
2017-07-11T05:59:29.091Z,77.47
2017-07-11T06:01:58.087Z,77.10
2017-07-11T06:04:26.448Z,76.69
2017-07-11T06:06:54.851Z,76.91
2017-07-11T06:09:24.090Z,76.80
2017-07-11T06:11:52.439Z,76.00
2017-07-11T06:14:20.780Z,76.41
2017-07-11T06:16:49.432Z,75.99
2017-07-11T06:19:17.780Z,76.23
2017-07-11T06:21:46.158Z,76.90
2017-07-11T06:24:15.017Z,75.30
2017-07-11T06:26:43.377Z,74.69
2017-07-11T06:29:12.495Z,74.29
2017-07-11T06:31:41.501Z,74.28
2017-07-11T06:34:09.863Z,75.27
2017-07-11T06:36:38.202Z,76.65
2017-07-11T06:39:06.965Z,76.16
2017-07-11T06:41:35.307Z,75.10
2017-07-11T06:44:03.647Z,75.30
2017-07-11T06:46:32.285Z,75.43
2017-07-11T06:49:01.386Z,75.85
2017-07-11T06:51:30.486Z,76.38
2017-07-11T06:54:00.224Z,76.44
2017-07-11T06:56:28.566Z,76.46
2017-07-11T06:58:56.908Z,76.73
2017-07-11T07:01:26.340Z,77.40
2017-07-11T07:03:54.702Z,77.85
2017-07-11T07:06:23.105Z,77.83
2017-07-11T07:08:51.718Z,77.78
2017-07-11T07:11:20.062Z,77.59
2017-07-11T07:13:48.440Z,78.10
2017-07-11T07:16:17.351Z,77.68
2017-07-11T07:18:46.459Z,77.27
2017-07-11T07:21:14.790Z,77.46
2017-07-11T07:23:43.405Z,77.37
2017-07-11T07:26:11.758Z,77.40
2017-07-11T07:28:40.107Z,76.32
2017-07-11T07:31:08.774Z,75.00
2017-07-11T07:33:37.105Z,74.91
2017-07-11T07:36:05.479Z,75.58
2017-07-11T07:38:34.274Z,74.68
2017-07-11T07:41:02.610Z,75.99
2017-07-11T07:43:30.983Z,76.08
2017-07-11T07:45:59.859Z,75.99
2017-07-11T07:48:28.191Z,75.76
2017-07-11T07:50:56.546Z,75.09
2017-07-11T07:53:25.186Z,75.16
2017-07-11T07:55:54.310Z,73.49
2017-07-11T07:58:22.655Z,74.14
2017-07-11T08:00:51.553Z,72.97
2017-07-11T08:03:19.935Z,72.01
2017-07-11T08:05:48.294Z,71.98
2017-07-11T08:08:16.943Z,70.80
2017-07-11T08:10:45.273Z,70.08
2017-07-11T08:13:13.627Z,72.00
2017-07-11T08:15:42.258Z,71.46
2017-07-11T08:18:10.635Z,70.07
2017-07-11T08:20:38.964Z,70.69
2017-07-11T08:23:07.874Z,68.22
2017-07-11T08:25:36.230Z,68.29
2017-07-11T08:28:04.561Z,67.66
2017-07-11T08:30:33.347Z,64.71
2017-07-11T08:33:01.704Z,64.05
2017-07-11T08:35:30.100Z,65.62
2017-07-11T08:37:58.802Z,67.59
2017-07-11T08:40:27.141Z,67.87
2017-07-11T08:42:55.495Z,67.93
2017-07-11T08:45:24.185Z,66.52
2017-07-11T08:47:52.537Z,63.69
2017-07-11T08:50:20.905Z,62.92
2017-07-11T08:52:49.527Z,60.54
2017-07-11T08:55:17.890Z,58.34
2017-07-11T08:57:46.267Z,57.03
2017-07-11T09:00:14.921Z,58.14
2017-07-11T09:02:43.262Z,56.48
2017-07-11T09:05:11.710Z,55.56
2017-07-11T09:07:40.476Z,55.57
2017-07-11T09:10:08.844Z,55.41
2017-07-11T09:12:37.197Z,58.06
2017-07-11T09:15:06.018Z,56.85
2017-07-11T09:17:34.374Z,54.12
2017-07-11T09:20:02.743Z,53.31
2017-07-11T09:22:31.455Z,52.96
2017-07-11T09:24:59.793Z,54.29
2017-07-11T09:27:28.195Z,55.31
2017-07-11T09:29:57.086Z,54.51
2017-07-11T09:32:25.432Z,54.23
2017-07-11T09:34:53.789Z,53.04
2017-07-11T09:37:22.571Z,50.28
2017-07-11T09:39:50.921Z,48.51
2017-07-11T09:42:20.008Z,48.99
2017-07-11T09:44:48.831Z,48.81
2017-07-11T09:47:17.188Z,50.37
2017-07-11T09:49:46.305Z,53.10
2017-07-11T09:52:15.504Z,55.61
2017-07-11T09:54:43.875Z,55.73
2017-07-11T09:57:12.236Z,55.48
2017-07-11T09:59:41.015Z,55.39
2017-07-11T10:02:09.352Z,53.11
2017-07-11T10:04:37.716Z,53.85
2017-07-11T10:07:06.583Z,55.03
2017-07-11T10:09:34.923Z,52.99
2017-07-11T10:12:03.270Z,52.69
2017-07-11T10:14:32.257Z,53.44
2017-07-11T10:17:00.604Z,51.94
2017-07-11T10:19:29.715Z,50.91
2017-07-11T10:21:58.377Z,48.90
2017-07-11T10:24:26.720Z,49.92
2017-07-11T10:26:55.069Z,50.76
2017-07-11T10:29:23.712Z,51.29
2017-07-11T10:31:52.064Z,52.68
2017-07-11T10:34:20.409Z,53.05
2017-07-11T10:36:49.360Z,53.12
2017-07-11T10:39:17.708Z,50.23
2017-07-11T10:41:46.049Z,48.70
2017-07-11T10:44:14.683Z,49.78
2017-07-11T10:46:43.039Z,52.35
2017-07-11T10:49:11.407Z,51.25
2017-07-11T10:51:40.053Z,51.89
2017-07-11T10:54:08.402Z,51.12
2017-07-11T10:56:36.749Z,51.93
2017-07-11T10:59:05.942Z,50.90
2017-07-11T11:01:34.292Z,49.87
2017-07-11T11:04:02.645Z,50.04
2017-07-11T11:06:31.528Z,50.20
2017-07-11T11:08:59.872Z,50.15
2017-07-11T11:11:28.251Z,51.59
2017-07-11T11:13:56.897Z,51.28
2017-07-11T11:16:25.248Z,49.24
2017-07-11T11:18:53.602Z,48.16
2017-07-11T11:21:22.699Z,49.76
2017-07-11T11:23:51.029Z,51.12
2017-07-11T11:26:19.382Z,52.55
2017-07-11T11:28:48.038Z,52.34
2017-07-11T11:31:16.401Z,51.97
2017-07-11T11:33:44.738Z,50.86
2017-07-11T11:36:13.400Z,51.76
2017-07-11T11:38:41.808Z,51.64
2017-07-11T11:41:10.167Z,50.59
2017-07-11T11:43:39.043Z,52.07
2017-07-11T11:46:07.390Z,50.65
2017-07-11T11:48:35.754Z,50.71
2017-07-11T11:51:04.699Z,51.10
2017-07-11T11:53:33.066Z,51.98
2017-07-11T11:56:01.440Z,54.00
2017-07-11T11:58:30.092Z,54.79
2017-07-11T12:00:58.444Z,54.57
2017-07-11T12:03:26.778Z,56.26
2017-07-11T12:05:55.844Z,56.60
2017-07-11T12:08:24.979Z,55.12
2017-07-11T12:10:53.318Z,54.17
2017-07-11T12:13:21.992Z,53.04
2017-07-11T12:15:50.339Z,52.57
2017-07-11T12:18:18.686Z,51.13
2017-07-11T12:20:47.326Z,50.48
2017-07-11T12:23:15.661Z,49.34
2017-07-11T12:25:44.007Z,47.09
2017-07-11T12:28:13.273Z,47.39
2017-07-11T12:30:41.641Z,48.41
2017-07-11T12:33:09.998Z,50.34
2017-07-11T12:35:38.779Z,50.79
2017-07-11T12:38:07.139Z,48.74
2017-07-11T12:40:36.282Z,46.47
2017-07-11T12:43:05.238Z,44.81
2017-07-11T12:45:33.564Z,43.65
2017-07-11T12:48:01.910Z,43.42
2017-07-11T12:50:31.226Z,43.98
2017-07-11T12:52:59.563Z,44.90
2017-07-11T12:55:27.960Z,44.24
2017-07-11T12:57:56.558Z,42.69
2017-07-11T13:00:24.882Z,42.15
2017-07-11T13:02:53.243Z,42.99
2017-07-11T13:05:22.040Z,42.67
2017-07-11T13:07:50.381Z,44.11
2017-07-11T13:10:18.741Z,44.85
2017-07-11T13:12:47.727Z,44.87
2017-07-11T13:15:16.834Z,43.66
2017-07-11T13:17:45.175Z,42.89
2017-07-11T13:20:14.106Z,44.47
2017-07-11T13:22:42.470Z,43.78
2017-07-11T13:25:11.643Z,43.77
2017-07-11T13:27:40.310Z,44.12
2017-07-11T13:30:08.649Z,42.86
2017-07-11T13:32:37.014Z,41.47
2017-07-11T13:35:06.092Z,42.76
2017-07-11T13:37:35.191Z,43.65
2017-07-11T13:40:03.532Z,44.41
2017-07-11T13:42:32.301Z,46.50
2017-07-11T13:45:00.656Z,46.34
2017-07-11T13:47:29.817Z,45.32
2017-07-11T13:49:58.497Z,45.37
2017-07-11T13:52:26.856Z,45.34
2017-07-11T13:54:55.212Z,46.70
2017-07-11T13:57:24.195Z,47.36
2017-07-11T13:59:52.572Z,48.06
2017-07-11T14:02:21.728Z,49.00
2017-07-11T14:04:50.473Z,47.17
2017-07-11T14:07:18.812Z,46.61
2017-07-11T14:09:47.167Z,46.89
2017-07-11T14:12:15.824Z,46.89
2017-07-11T14:14:44.159Z,46.49
2017-07-11T14:17:12.493Z,46.20
2017-07-11T14:19:41.571Z,45.87
2017-07-11T14:22:09.907Z,44.41
2017-07-11T14:24:39.053Z,45.10
2017-07-11T14:27:07.818Z,45.87
2017-07-11T14:29:36.170Z,45.33
2017-07-11T14:32:05.302Z,44.77
2017-07-11T14:34:33.975Z,45.15
2017-07-11T14:37:03.093Z,44.84
2017-07-11T14:39:31.434Z,45.19
2017-07-11T14:42:00.352Z,46.12
2017-07-11T14:44:28.684Z,45.40
2017-07-11T14:46:57.026Z,46.73
2017-07-11T14:49:25.999Z,46.14
2017-07-11T14:51:54.343Z,45.15
2017-07-11T14:54:22.734Z,44.73
2017-07-11T14:56:51.406Z,44.78
2017-07-11T14:59:19.770Z,45.21
2017-07-11T15:01:48.119Z,45.62
2017-07-11T15:04:16.846Z,43.73
2017-07-11T15:06:45.215Z,40.04
2017-07-11T15:09:13.564Z,38.94
2017-07-11T15:11:42.228Z,38.82
2017-07-11T15:14:10.595Z,39.70
2017-07-11T15:16:38.935Z,39.52
2017-07-11T15:19:07.572Z,39.07
2017-07-11T15:21:35.914Z,38.82
2017-07-11T15:24:04.279Z,39.10
2017-07-11T15:26:33.215Z,39.23
2017-07-11T15:29:01.538Z,39.93
2017-07-11T15:31:29.882Z,40.58
2017-07-11T15:33:58.549Z,40.13
2017-07-11T15:36:27.673Z,40.39
2017-07-11T15:38:56.000Z,40.37
2017-07-11T15:41:24.656Z,40.73
2017-07-11T15:43:53.014Z,40.00
2017-07-11T15:46:21.363Z,41.07
2017-07-11T15:48:50.370Z,41.25
2017-07-11T15:51:18.707Z,42.38
2017-07-11T15:53:47.048Z,42.40
2017-07-11T15:56:16.269Z,42.60
2017-07-11T15:58:44.612Z,42.66
2017-07-11T16:01:13.715Z,42.50
2017-07-11T16:03:42.467Z,41.88
2017-07-11T16:06:10.785Z,41.05
2017-07-11T16:08:39.137Z,40.76
2017-07-11T16:11:08.678Z,40.56
2017-07-11T16:13:37.056Z,40.72
2017-07-11T16:16:05.404Z,41.41
2017-07-11T16:18:34.850Z,41.90
2017-07-11T16:21:03.203Z,42.23
2017-07-11T16:23:32.369Z,41.78
2017-07-11T16:26:01.089Z,42.11
2017-07-11T16:28:29.435Z,42.61
2017-07-11T16:30:57.776Z,42.75
2017-07-11T16:33:26.706Z,43.94
2017-07-11T16:35:55.066Z,44.71
2017-07-11T16:38:23.469Z,45.99
2017-07-11T16:40:52.418Z,47.02
2017-07-11T16:43:20.785Z,48.71
2017-07-11T16:45:49.185Z,48.92
2017-07-11T16:48:18.030Z,49.47
2017-07-11T16:50:46.392Z,49.34
2017-07-11T16:53:14.737Z,50.50
2017-07-11T16:55:43.937Z,51.55
2017-07-11T16:58:12.311Z,52.19
2017-07-11T17:00:40.642Z,53.93
2017-07-11T17:03:09.334Z,55.88
2017-07-11T17:05:38.042Z,56.67
2017-07-11T17:08:06.400Z,56.91
2017-07-11T17:10:35.829Z,56.48
2017-07-11T17:13:04.206Z,55.46
2017-07-11T17:15:32.600Z,55.57
2017-07-11T17:18:02.501Z,55.33
2017-07-11T17:20:30.857Z,57.32
2017-07-11T17:22:59.199Z,57.71
2017-07-11T17:25:28.158Z,58.03
2017-07-11T17:27:56.537Z,57.61
2017-07-11T17:30:24.908Z,56.78
2017-07-11T17:32:53.618Z,56.74
2017-07-11T17:35:21.976Z,57.68
2017-07-11T17:37:50.314Z,57.05
2017-07-11T17:40:19.226Z,56.92
2017-07-11T17:42:47.665Z,56.84
2017-07-11T17:45:16.019Z,56.16
2017-07-11T17:47:44.656Z,55.41
2017-07-11T17:50:13.046Z,55.48
2017-07-11T17:52:42.189Z,54.96
2017-07-11T17:55:10.952Z,55.13
2017-07-11T17:57:39.296Z,54.74
2017-07-11T18:00:08.409Z,54.82
2017-07-11T18:02:37.405Z,54.89
2017-07-11T18:05:05.776Z,55.90
2017-07-11T18:07:35.157Z,56.02
2017-07-11T18:10:03.894Z,56.42
2017-07-11T18:12:32.218Z,56.44
2017-07-11T18:15:00.586Z,56.32
2017-07-11T18:17:29.535Z,56.03
2017-07-11T18:19:57.896Z,56.27
2017-07-11T18:22:27.015Z,56.56
2017-07-11T18:24:56.003Z,56.79
2017-07-11T18:27:24.355Z,56.92
2017-07-11T18:29:53.496Z,56.63
2017-07-11T18:32:22.283Z,57.25
2017-07-11T18:34:50.619Z,57.62
2017-07-11T18:37:19.742Z,59.93
2017-07-11T18:39:48.709Z,60.76
2017-07-11T18:42:17.109Z,60.91
2017-07-11T18:44:45.486Z,61.88
2017-07-11T18:47:14.410Z,61.27
2017-07-11T18:49:42.763Z,61.13
2017-07-11T18:52:11.097Z,60.92
2017-07-11T18:54:39.834Z,61.28
2017-07-11T18:57:08.196Z,61.42
2017-07-11T18:59:36.555Z,61.48
2017-07-11T19:02:05.284Z,61.58
2017-07-11T19:04:33.600Z,61.34
2017-07-11T19:07:01.966Z,60.76
2017-07-11T19:09:30.834Z,61.27
2017-07-11T19:11:59.184Z,60.72
2017-07-11T19:14:27.519Z,60.78
2017-07-11T19:16:56.370Z,60.72
2017-07-11T19:19:24.726Z,60.24
2017-07-11T19:21:53.864Z,60.40
2017-07-11T19:24:22.545Z,60.44
2017-07-11T19:26:50.905Z,60.56
2017-07-11T19:29:19.259Z,60.61
2017-07-11T19:31:48.073Z,60.48
2017-07-11T19:34:16.449Z,60.50
2017-07-11T19:36:44.816Z,61.42
2017-07-11T19:39:13.737Z,61.35
2017-07-11T19:41:42.085Z,61.73
2017-07-11T19:44:11.205Z,61.96
2017-07-11T19:46:39.979Z,62.17
2017-07-11T19:49:08.310Z,61.90
2017-07-11T19:51:36.650Z,62.19
2017-07-11T19:54:05.723Z,62.08
2017-07-11T19:56:34.831Z,62.11
2017-07-11T19:59:03.949Z,62.13
2017-07-11T20:01:32.732Z,62.48
2017-07-11T20:04:01.101Z,62.42
2017-07-11T20:06:29.487Z,62.94
2017-07-11T20:08:58.153Z,64.45
2017-07-11T20:11:26.483Z,63.81
2017-07-11T20:13:54.851Z,63.33
2017-07-11T20:16:23.808Z,63.33
2017-07-11T20:18:52.131Z,63.61
2017-07-11T20:21:20.490Z,63.01
2017-07-11T20:23:49.273Z,63.14
2017-07-11T20:26:17.653Z,62.95
2017-07-11T20:28:46.003Z,62.97
2017-07-11T20:31:14.924Z,62.89
2017-07-11T20:33:43.310Z,62.46
2017-07-11T20:36:11.664Z,62.37
2017-07-11T20:38:40.523Z,63.64
2017-07-11T20:41:08.866Z,64.37
2017-07-11T20:43:37.232Z,64.33
2017-07-11T20:46:05.853Z,63.95
2017-07-11T20:48:34.227Z,64.07
2017-07-11T20:51:02.602Z,64.24
2017-07-11T20:53:31.458Z,63.88
2017-07-11T20:55:59.829Z,64.69
2017-07-11T20:58:28.179Z,64.90
2017-07-11T21:00:57.092Z,64.50
2017-07-11T21:03:25.461Z,66.12
2017-07-11T21:05:53.830Z,65.32
2017-07-11T21:08:22.499Z,65.08
2017-07-11T21:10:50.856Z,66.17
2017-07-11T21:13:19.255Z,65.87
2017-07-11T21:15:48.010Z,65.64
2017-07-11T21:18:16.360Z,65.96
2017-07-11T21:20:44.782Z,66.60
2017-07-11T21:23:13.669Z,67.37
2017-07-11T21:25:42.035Z,67.29
2017-07-11T21:28:10.403Z,67.43
2017-07-11T21:30:39.259Z,67.79
2017-07-11T21:33:07.612Z,68.38
2017-07-11T21:35:35.967Z,69.17
2017-07-11T21:38:04.651Z,69.53
2017-07-11T21:40:32.996Z,70.32
2017-07-11T21:43:01.365Z,70.17
2017-07-11T21:45:30.289Z,70.43
2017-07-11T21:47:58.655Z,69.92
2017-07-11T21:50:27.013Z,69.65
2017-07-11T21:52:55.676Z,69.48
2017-07-11T21:55:24.005Z,70.10
2017-07-11T21:57:53.102Z,70.42
2017-07-11T22:00:22.697Z,70.30
2017-07-11T22:02:51.029Z,69.99
2017-07-11T22:05:19.368Z,70.22
2017-07-11T22:07:48.603Z,70.18
2017-07-11T22:10:16.975Z,70.59
2017-07-11T22:12:45.436Z,70.62
2017-07-11T22:15:14.119Z,71.25
2017-07-11T22:17:42.479Z,70.77
2017-07-11T22:20:10.853Z,71.36
2017-07-11T22:22:39.597Z,71.75
2017-07-11T22:25:07.922Z,71.55
2017-07-11T22:27:36.267Z,71.43
2017-07-11T22:30:05.092Z,71.97
2017-07-11T22:32:33.426Z,72.60
2017-07-11T22:35:01.797Z,71.84
2017-07-11T22:37:30.563Z,71.29
2017-07-11T22:39:58.919Z,71.64
2017-07-11T22:42:27.284Z,70.83
2017-07-11T22:44:55.961Z,71.08
2017-07-11T22:47:24.331Z,71.95
2017-07-11T22:49:52.687Z,72.53
2017-07-11T22:52:21.544Z,71.89
2017-07-11T22:54:50.652Z,72.22
2017-07-11T22:57:19.028Z,72.80
2017-07-11T22:59:47.715Z,74.32
2017-07-11T23:02:16.058Z,73.90
2017-07-11T23:04:44.406Z,73.48
2017-07-11T23:07:13.026Z,72.77
2017-07-11T23:09:42.163Z,74.54
2017-07-11T23:12:10.518Z,73.96
2017-07-11T23:14:39.628Z,73.90
2017-07-11T23:17:08.001Z,74.06
2017-07-11T23:19:37.114Z,73.92
2017-07-11T23:22:05.977Z,74.45
2017-07-11T23:24:34.338Z,75.36
2017-07-11T23:27:02.681Z,75.58
2017-07-11T23:29:31.554Z,75.89
2017-07-11T23:31:59.908Z,75.85
2017-07-11T23:34:29.021Z,76.05
2017-07-11T23:36:58.422Z,76.30
2017-07-11T23:39:26.802Z,77.08
2017-07-11T23:41:55.180Z,77.05
2017-07-11T23:44:23.813Z,76.69
2017-07-11T23:46:52.170Z,77.37
2017-07-11T23:49:20.515Z,77.91
2017-07-11T23:51:49.235Z,78.50
2017-07-11T23:54:17.575Z,78.16
2017-07-11T23:56:45.899Z,77.84
2017-07-11T23:59:14.925Z,77.62
